createdAt,value
2023-04-28T00:00:31.538Z,55.28
2023-04-28T00:03:24.464Z,55.33
2023-04-28T00:05:59.798Z,55.44
2023-04-28T00:08:35.758Z,55.46
2023-04-28T00:11:13.272Z,55.30
2023-04-28T00:13:45.604Z,55.35
2023-04-28T00:16:19.052Z,55.38
2023-04-28T00:18:53.186Z,55.43
2023-04-28T00:21:26.780Z,55.40
2023-04-28T00:24:00.196Z,55.38
2023-04-28T00:26:34.087Z,55.52
2023-04-28T00:29:08.209Z,55.48
2023-04-28T00:31:41.668Z,55.40
2023-04-28T00:34:15.802Z,55.31
2023-04-28T00:36:49.481Z,55.41
2023-04-28T00:39:24.006Z,55.40
2023-04-28T00:41:59.490Z,55.29
2023-04-28T00:44:33.332Z,55.28
2023-04-28T00:47:07.153Z,55.19
2023-04-28T00:49:40.776Z,55.27
2023-04-28T00:52:14.782Z,55.34
2023-04-28T00:54:49.417Z,55.24
2023-04-28T00:57:23.494Z,55.09
2023-04-28T00:59:57.460Z,55.15
2023-04-28T01:02:31.162Z,54.99
2023-04-28T01:05:05.638Z,54.96
2023-04-28T01:07:39.494Z,54.98
2023-04-28T01:10:14.254Z,54.87
2023-04-28T01:12:47.881Z,54.89
2023-04-28T01:15:22.589Z,54.72
2023-04-28T01:17:56.364Z,54.81
2023-04-28T01:20:29.848Z,54.75
2023-04-28T01:23:05.714Z,54.73
2023-04-28T01:25:39.212Z,54.70
2023-04-28T01:28:13.333Z,54.77
2023-04-28T01:30:47.760Z,54.74
2023-04-28T01:33:21.665Z,54.79
2023-04-28T01:35:55.015Z,54.95
2023-04-28T01:38:29.972Z,55.01
2023-04-28T01:41:03.885Z,54.93
2023-04-28T01:43:37.391Z,55.19
2023-04-28T01:46:12.660Z,55.24
2023-04-28T01:48:46.810Z,55.38
2023-04-28T01:51:20.263Z,55.37
2023-04-28T01:53:55.955Z,55.53
2023-04-28T01:56:31.768Z,55.65
2023-04-28T01:59:05.564Z,55.67
2023-04-28T02:01:39.589Z,55.64
2023-04-28T02:04:13.228Z,55.73
2023-04-28T02:06:46.683Z,55.61
2023-04-28T02:09:21.193Z,55.82
2023-04-28T02:11:54.954Z,55.92
2023-04-28T02:14:29.355Z,55.83
2023-04-28T02:17:03.443Z,55.77
2023-04-28T02:19:39.070Z,55.79
2023-04-28T02:22:12.454Z,55.58
2023-04-28T02:24:45.878Z,55.72
2023-04-28T02:27:19.236Z,55.59
2023-04-28T02:29:53.537Z,55.45
2023-04-28T02:32:27.900Z,55.48
2023-04-28T02:35:01.322Z,55.33
2023-04-28T02:37:34.907Z,55.17
2023-04-28T02:40:11.371Z,55.13
2023-04-28T02:42:44.841Z,54.93
2023-04-28T02:45:18.743Z,54.75
2023-04-28T02:47:52.702Z,54.68
2023-04-28T02:50:26.840Z,54.51
2023-04-28T02:53:00.367Z,54.29
2023-04-28T02:55:33.754Z,53.82
2023-04-28T02:58:07.279Z,52.94
2023-04-28T03:00:41.227Z,52.09
2023-04-28T03:03:15.210Z,51.02
2023-04-28T03:05:49.248Z,49.63
2023-04-28T03:08:24.030Z,47.82
2023-04-28T03:10:58.108Z,45.99
2023-04-28T03:13:32.121Z,43.93
2023-04-28T03:16:05.852Z,41.75
2023-04-28T03:18:39.613Z,39.90
2023-04-28T03:21:14.479Z,38.54
2023-04-28T03:23:48.075Z,36.99
2023-04-28T03:26:21.910Z,35.39
2023-04-28T03:28:56.035Z,34.04
2023-04-28T03:31:29.719Z,32.68
2023-04-28T03:34:05.427Z,31.45
2023-04-28T03:36:39.182Z,30.55
2023-04-28T03:39:12.843Z,29.92
2023-04-28T03:41:46.676Z,28.68
2023-04-28T03:44:20.203Z,27.90
2023-04-28T03:46:54.113Z,26.96
2023-04-28T03:49:31.021Z,25.74
2023-04-28T03:52:04.946Z,24.82
2023-04-28T03:54:38.458Z,23.91
2023-04-28T03:57:12.599Z,22.85
2023-04-28T03:59:46.109Z,21.96
2023-04-28T04:02:19.745Z,21.62
2023-04-28T04:04:54.235Z,21.15
2023-04-28T04:07:28.325Z,21.09
2023-04-28T04:10:04.671Z,20.57
2023-04-28T04:12:38.641Z,19.88
2023-04-28T04:15:14.097Z,19.16
2023-04-28T04:17:47.951Z,18.61
2023-04-28T04:20:21.508Z,17.77
2023-04-28T04:22:54.920Z,17.17
2023-04-28T04:25:28.780Z,16.86
2023-04-28T04:28:02.207Z,16.49
2023-04-28T04:30:36.045Z,16.02
2023-04-28T04:33:09.864Z,15.79
2023-04-28T04:35:44.211Z,15.12
2023-04-28T04:38:19.826Z,14.54
2023-04-28T04:40:54.351Z,14.23
2023-04-28T04:43:27.912Z,14.07
2023-04-28T04:46:01.427Z,13.57
2023-04-28T04:48:35.261Z,13.21
2023-04-28T04:51:09.579Z,12.75
2023-04-28T04:53:41.177Z,12.37
2023-04-28T04:56:15.405Z,12.06
2023-04-28T04:58:47.294Z,11.78
2023-04-28T05:01:20.713Z,11.39
2023-04-28T05:03:56.622Z,11.06
2023-04-28T05:06:32.317Z,10.91
2023-04-28T05:09:05.816Z,10.46
2023-04-28T05:11:39.272Z,10.14
2023-04-28T05:14:13.687Z,10.05
2023-04-28T05:16:47.545Z,9.92
2023-04-28T05:19:19.516Z,9.59
2023-04-28T05:21:55.161Z,9.49
2023-04-28T05:24:29.023Z,9.35
2023-04-28T05:27:03.489Z,9.18
2023-04-28T05:29:37.159Z,8.77
2023-04-28T05:32:08.842Z,8.59
2023-04-28T05:34:42.249Z,8.34
2023-04-28T05:37:13.962Z,8.19
2023-04-28T05:39:47.860Z,7.96
2023-04-28T05:42:21.338Z,7.79
2023-04-28T05:44:54.706Z,7.57
2023-04-28T05:47:26.416Z,7.47
2023-04-28T05:49:59.838Z,7.06
2023-04-28T05:52:35.800Z,6.64
2023-04-28T05:55:10.803Z,6.75
2023-04-28T05:57:52.353Z,6.68
2023-04-28T06:00:27.450Z,6.60
2023-04-28T06:03:01.388Z,6.35
2023-04-28T06:05:35.827Z,6.12
2023-04-28T06:08:10.449Z,6.23
2023-04-28T06:10:44.113Z,5.97
2023-04-28T06:13:18.629Z,6.00
2023-04-28T06:15:52.742Z,6.04
2023-04-28T06:18:27.562Z,5.91
2023-04-28T06:21:01.377Z,5.77
2023-04-28T06:23:35.202Z,5.44
2023-04-28T06:26:08.780Z,5.35
2023-04-28T06:28:42.682Z,5.56
2023-04-28T06:31:16.355Z,5.46
2023-04-28T06:33:50.081Z,5.24
2023-04-28T06:36:24.284Z,5.29
2023-04-28T06:38:59.241Z,5.10
2023-04-28T06:41:33.086Z,5.14
2023-04-28T06:44:08.389Z,5.18
2023-04-28T06:46:42.508Z,5.50
2023-04-28T06:49:16.170Z,5.61
2023-04-28T06:51:51.882Z,5.60
2023-04-28T06:54:26.608Z,5.74
2023-04-28T06:57:00.832Z,5.59
2023-04-28T06:59:35.332Z,5.56
2023-04-28T07:02:09.680Z,5.71
2023-04-28T07:04:43.274Z,5.59
2023-04-28T07:07:16.826Z,5.89
2023-04-28T07:09:52.718Z,5.88
2023-04-28T07:12:26.661Z,6.43
2023-04-28T07:15:00.350Z,7.22
2023-04-28T07:17:34.113Z,8.34
2023-04-28T07:20:06.508Z,9.35
2023-04-28T07:22:40.512Z,10.45
2023-04-28T07:25:17.578Z,11.14
2023-04-28T07:27:51.263Z,11.69
2023-04-28T07:30:27.807Z,12.41
2023-04-28T07:33:02.395Z,13.31
2023-04-28T07:35:36.120Z,13.81
2023-04-28T07:38:19.486Z,14.55
2023-04-28T07:40:55.713Z,15.47
2023-04-28T07:43:29.468Z,16.20
2023-04-28T07:46:03.363Z,16.37
2023-04-28T07:48:39.457Z,16.71
2023-04-28T07:51:13.509Z,17.12
2023-04-28T07:53:47.114Z,17.53
2023-04-28T07:56:22.467Z,17.73
2023-04-28T07:58:56.285Z,17.98
2023-04-28T08:01:30.880Z,18.60
2023-04-28T08:04:06.208Z,18.42
2023-04-28T08:06:40.979Z,18.56
2023-04-28T08:09:17.654Z,18.98
2023-04-28T08:11:53.443Z,19.03
2023-04-28T08:14:27.032Z,19.52
2023-04-28T08:17:01.031Z,19.50
2023-04-28T08:19:37.073Z,19.89
2023-04-28T08:22:10.725Z,20.34
2023-04-28T08:24:44.588Z,20.33
2023-04-28T08:27:19.224Z,20.86
2023-04-28T08:29:54.250Z,20.84
2023-04-28T08:32:27.884Z,20.74
2023-04-28T08:35:02.803Z,20.66
2023-04-28T08:37:37.112Z,21.08
2023-04-28T08:40:12.896Z,21.18
2023-04-28T08:42:48.017Z,21.06
2023-04-28T08:45:28.259Z,20.78
2023-04-28T08:48:02.361Z,20.67
2023-04-28T08:50:37.798Z,20.35
2023-04-28T08:53:11.809Z,20.44
2023-04-28T08:55:46.318Z,20.42
2023-04-28T08:58:22.843Z,20.28
2023-04-28T09:00:57.404Z,20.58
2023-04-28T09:03:33.713Z,20.87
2023-04-28T09:06:08.040Z,21.44
2023-04-28T09:08:43.066Z,21.52
2023-04-28T09:11:17.484Z,21.60
2023-04-28T09:13:51.341Z,21.65
2023-04-28T09:16:25.120Z,21.73
2023-04-28T09:19:03.459Z,21.59
2023-04-28T09:21:37.342Z,22.05
2023-04-28T09:24:12.282Z,22.41
2023-04-28T09:26:55.460Z,22.73
2023-04-28T09:29:29.449Z,22.70
2023-04-28T09:35:45.240Z,23.00
2023-04-28T09:38:16.149Z,23.08
2023-04-28T09:40:58.121Z,23.19
2023-04-28T09:43:30.361Z,23.26
2023-04-28T09:46:02.166Z,23.42
2023-04-28T09:48:34.507Z,23.50
2023-04-28T09:51:08.021Z,23.52
2023-04-28T09:53:38.622Z,23.47
2023-04-28T09:56:10.702Z,23.56
2023-04-28T09:58:43.542Z,24.22
2023-04-28T10:01:14.385Z,24.61
2023-04-28T10:03:44.868Z,24.63
2023-04-28T10:06:16.219Z,24.65
2023-04-28T10:08:48.023Z,24.36
2023-04-28T10:11:18.706Z,24.99
2023-04-28T10:13:49.478Z,25.32
2023-04-28T10:16:21.090Z,25.33
2023-04-28T10:18:52.012Z,25.27
2023-04-28T10:21:24.343Z,25.39
2023-04-28T10:24:11.869Z,25.34
2023-04-28T10:27:09.397Z,25.28
2023-04-28T10:29:40.075Z,25.44
2023-04-28T10:32:22.001Z,25.84
2023-04-28T10:34:54.515Z,25.91
2023-04-28T10:38:04.920Z,25.34
2023-04-28T10:40:35.813Z,25.59
2023-04-28T10:43:06.987Z,25.65
2023-04-28T10:46:06.379Z,25.44
2023-04-28T10:48:56.707Z,25.15
2023-04-28T10:51:35.898Z,25.56
2023-04-28T10:54:21.676Z,25.34
2023-04-28T10:57:23.252Z,25.29
2023-04-28T10:59:54.413Z,25.13
2023-04-28T11:02:51.284Z,25.11
2023-04-28T11:05:26.530Z,25.12
2023-04-28T11:08:40.537Z,25.15
2023-04-28T11:11:24.809Z,25.04
2023-04-28T11:13:56.688Z,25.00
2023-04-28T11:16:27.417Z,24.94
2023-04-28T11:19:24.416Z,24.98
2023-04-28T11:21:58.105Z,24.77
2023-04-28T11:24:29.706Z,24.68
2023-04-28T11:27:02.301Z,24.91
2023-04-28T11:29:37.421Z,25.00
2023-04-28T11:32:11.274Z,25.18
2023-04-28T11:34:43.946Z,25.22
2023-04-28T11:37:22.780Z,25.17
2023-04-28T11:39:53.546Z,25.04
2023-04-28T11:42:26.085Z,25.01
2023-04-28T11:44:57.804Z,25.13
2023-04-28T11:47:34.625Z,25.40
2023-04-28T11:50:14.254Z,25.62
2023-04-28T11:52:53.853Z,25.80
2023-04-28T11:58:36.265Z,25.78
2023-04-28T12:01:13.717Z,25.94
2023-04-28T12:03:46.604Z,25.94
2023-04-28T12:06:21.512Z,25.70
2023-04-28T12:08:52.399Z,26.27
2023-04-28T12:11:24.900Z,26.31
2023-04-28T12:14:10.563Z,27.02
2023-04-28T12:16:46.865Z,27.18
2023-04-28T12:19:17.735Z,27.34
2023-04-28T12:22:07.332Z,28.16
2023-04-28T12:24:38.905Z,28.53
2023-04-28T12:27:21.938Z,28.90
2023-04-28T12:29:54.094Z,29.22
2023-04-28T12:32:40.007Z,28.84
2023-04-28T12:35:11.458Z,28.99
2023-04-28T12:37:42.612Z,28.96
2023-04-28T12:40:14.529Z,28.31
2023-04-28T12:42:45.160Z,28.64
2023-04-28T12:45:16.062Z,28.85
2023-04-28T12:47:47.831Z,28.68
2023-04-28T12:50:18.274Z,28.53
2023-04-28T12:52:49.021Z,28.81
2023-04-28T12:55:19.512Z,28.70
2023-04-28T12:57:49.846Z,28.96
2023-04-28T13:00:23.258Z,28.83
2023-04-28T13:02:54.228Z,28.75
2023-04-28T13:05:25.470Z,29.22
2023-04-28T13:07:56.784Z,29.34
2023-04-28T13:10:28.583Z,29.20
2023-04-28T13:12:58.918Z,28.98
2023-04-28T13:15:30.592Z,29.10
2023-04-28T13:18:01.592Z,29.45
2023-04-28T13:20:32.294Z,29.29
2023-04-28T13:23:04.414Z,29.48
2023-04-28T13:25:35.178Z,29.07
2023-04-28T13:28:05.752Z,29.42
2023-04-28T13:30:36.149Z,29.38
2023-04-28T13:33:07.112Z,29.69
2023-04-28T13:35:38.283Z,29.83
2023-04-28T13:38:10.054Z,29.88
2023-04-28T13:40:44.501Z,30.05
2023-04-28T13:43:15.120Z,30.16
2023-04-28T13:45:47.969Z,30.68
2023-04-28T13:48:18.372Z,30.91
2023-04-28T13:50:50.283Z,31.17
2023-04-28T13:53:21.908Z,31.46
2023-04-28T13:55:54.201Z,31.92
2023-04-28T13:58:25.343Z,32.32
2023-04-28T14:00:57.209Z,32.33
2023-04-28T14:03:28.140Z,32.59
2023-04-28T14:06:01.804Z,32.80
2023-04-28T14:08:32.309Z,32.97
2023-04-28T14:11:09.765Z,33.26
2023-04-28T14:13:41.226Z,33.60
2023-04-28T14:16:13.836Z,33.67
2023-04-28T14:18:44.643Z,34.04
2023-04-28T14:21:15.709Z,34.37
2023-04-28T14:23:47.489Z,34.35
2023-04-28T14:26:20.005Z,34.61
2023-04-28T14:28:50.927Z,34.92
2023-04-28T14:31:21.560Z,34.93
2023-04-28T14:33:51.959Z,34.96
2023-04-28T14:36:22.324Z,35.07
2023-04-28T14:38:52.782Z,35.50
2023-04-28T14:41:23.069Z,35.55
2023-04-28T14:43:53.828Z,35.71
2023-04-28T14:46:26.035Z,35.92
2023-04-28T14:48:58.113Z,36.04
2023-04-28T14:51:28.886Z,36.23
2023-04-28T14:53:59.769Z,36.47
2023-04-28T14:56:32.604Z,36.42
2023-04-28T14:59:04.191Z,36.48
2023-04-28T15:01:34.557Z,36.63
2023-04-28T15:04:06.309Z,36.74
2023-04-28T15:06:37.108Z,36.65
2023-04-28T15:09:07.509Z,36.77
2023-04-28T15:11:38.042Z,36.89
2023-04-28T15:14:08.427Z,36.96
2023-04-28T15:16:38.799Z,36.90
2023-04-28T15:19:09.305Z,36.94
2023-04-28T15:21:39.735Z,37.23
2023-04-28T15:24:10.605Z,37.58
2023-04-28T15:26:41.215Z,37.86
2023-04-28T15:29:12.263Z,37.96
2023-04-28T15:31:42.647Z,38.22
2023-04-28T15:34:13.850Z,38.47
2023-04-28T15:36:49.778Z,38.74
2023-04-28T15:39:20.054Z,39.43
2023-04-28T15:41:53.244Z,40.09
2023-04-28T15:44:24.035Z,40.46
2023-04-28T15:46:55.481Z,41.04
2023-04-28T15:49:28.393Z,41.13
2023-04-28T15:52:01.682Z,41.41
2023-04-28T15:54:32.134Z,41.71
2023-04-28T15:57:03.262Z,41.96
2023-04-28T15:59:35.623Z,42.14
2023-04-28T16:02:07.171Z,42.47
2023-04-28T16:04:38.258Z,42.83
2023-04-28T16:07:09.140Z,43.08
2023-04-28T16:09:40.172Z,43.36
2023-04-28T16:12:11.393Z,43.51
2023-04-28T16:14:42.501Z,43.71
2023-04-28T16:17:12.818Z,43.99
2023-04-28T16:19:45.469Z,44.26
2023-04-28T16:22:16.328Z,44.16
2023-04-28T16:24:48.282Z,43.46
2023-04-28T16:27:18.904Z,43.06
2023-04-28T16:29:49.936Z,42.51
2023-04-28T16:32:22.792Z,41.83
2023-04-28T16:34:54.153Z,40.83
2023-04-28T16:37:25.461Z,40.64
2023-04-28T16:39:56.231Z,40.09
2023-04-28T16:42:28.613Z,39.80
2023-04-28T16:44:59.472Z,39.67
2023-04-28T16:47:31.242Z,39.65
2023-04-28T16:50:02.008Z,40.05
2023-04-28T16:52:33.599Z,40.35
2023-04-28T16:55:05.161Z,40.59
2023-04-28T16:57:38.541Z,40.93
2023-04-28T17:00:14.895Z,41.06
2023-04-28T17:02:45.611Z,41.21
2023-04-28T17:05:17.307Z,41.35
2023-04-28T17:07:50.506Z,41.43
2023-04-28T17:10:21.779Z,41.61
2023-04-28T17:12:52.113Z,41.67
2023-04-28T17:15:23.069Z,41.88
2023-04-28T17:17:55.605Z,42.02
2023-04-28T17:20:29.925Z,42.24
2023-04-28T17:23:02.700Z,42.59
2023-04-28T17:25:33.668Z,42.79
2023-04-28T17:28:05.201Z,42.95
2023-04-28T17:30:38.603Z,43.09
2023-04-28T17:33:10.275Z,43.32
2023-04-28T17:35:40.803Z,43.52
2023-04-28T17:38:11.513Z,43.82
2023-04-28T17:40:44.531Z,43.90
2023-04-28T17:43:16.277Z,44.17
2023-04-28T17:45:50.768Z,44.42
2023-04-28T17:48:21.860Z,44.43
2023-04-28T17:50:53.068Z,44.77
2023-04-28T17:53:24.098Z,44.79
2023-04-28T17:55:55.508Z,45.13
2023-04-28T17:58:26.297Z,45.15
2023-04-28T18:01:02.727Z,45.17
2023-04-28T18:03:36.644Z,45.34
2023-04-28T18:06:10.728Z,45.38
2023-04-28T18:08:42.187Z,45.56
2023-04-28T18:11:15.143Z,45.64
2023-04-28T18:13:50.761Z,45.63
2023-04-28T18:16:21.398Z,45.87
2023-04-28T18:18:51.628Z,45.88
2023-04-28T18:21:22.552Z,45.96
2023-04-28T18:23:53.482Z,46.02
2023-04-28T18:26:31.647Z,46.12
2023-04-28T18:29:03.795Z,46.07
2023-04-28T18:31:35.332Z,46.10
2023-04-28T18:34:08.898Z,46.24
2023-04-28T18:36:39.088Z,46.18
2023-04-28T18:39:10.125Z,46.27
2023-04-28T18:41:42.757Z,46.39
2023-04-28T18:44:15.865Z,46.33
2023-04-28T18:46:51.188Z,46.45
2023-04-28T18:49:27.016Z,46.64
2023-04-28T18:52:01.438Z,46.73
2023-04-28T18:54:31.844Z,47.00
2023-04-28T18:57:03.208Z,47.07
2023-04-28T18:59:34.238Z,47.08
2023-04-28T19:02:04.880Z,47.11
2023-04-28T19:04:40.071Z,47.22
2023-04-28T19:07:11.603Z,47.38
2023-04-28T19:09:47.895Z,47.45
2023-04-28T19:12:31.734Z,47.42
2023-04-28T19:15:07.830Z,47.60
2023-04-28T19:17:41.483Z,47.54
2023-04-28T19:20:16.260Z,47.58
2023-04-28T19:22:47.066Z,47.63
2023-04-28T19:25:19.276Z,47.62
2023-04-28T19:27:50.401Z,47.67
2023-04-28T19:30:24.132Z,47.53
2023-04-28T19:32:54.955Z,47.53
2023-04-28T19:35:27.290Z,47.56
2023-04-28T19:37:58.146Z,47.49
2023-04-28T19:40:33.114Z,47.34
2023-04-28T19:43:03.954Z,47.48
2023-04-28T19:45:36.067Z,47.41
2023-04-28T19:48:07.854Z,47.28
2023-04-28T19:50:39.311Z,47.40
2023-04-28T19:53:11.763Z,47.36
2023-04-28T19:55:42.280Z,47.58
2023-04-28T19:58:13.852Z,47.50
2023-04-28T20:00:47.571Z,47.53
2023-04-28T20:03:18.322Z,47.63
2023-04-28T20:05:50.426Z,47.61
2023-04-28T20:08:25.368Z,47.65
2023-04-28T20:10:56.335Z,47.78
2023-04-28T20:13:30.506Z,47.70
2023-04-28T20:16:00.818Z,47.80
2023-04-28T20:18:31.928Z,47.80
2023-04-28T20:21:03.490Z,47.76
2023-04-28T20:23:37.263Z,47.94
2023-04-28T20:26:08.786Z,47.87
2023-04-28T20:28:40.944Z,47.89
2023-04-28T20:31:11.576Z,48.01
2023-04-28T20:33:41.790Z,48.17
2023-04-28T20:36:12.153Z,48.06
2023-04-28T20:38:43.883Z,48.29
2023-04-28T20:41:14.413Z,48.34
2023-04-28T20:43:44.690Z,48.56
2023-04-28T20:46:15.529Z,48.59
2023-04-28T20:48:47.059Z,48.79
2023-04-28T20:51:17.519Z,48.80
2023-04-28T20:53:47.696Z,48.91
2023-04-28T20:56:18.057Z,48.89
2023-04-28T20:58:48.876Z,48.99
2023-04-28T21:01:19.321Z,49.13
2023-04-28T21:03:50.573Z,49.33
2023-04-28T21:06:20.929Z,49.28
2023-04-28T21:08:53.057Z,49.37
2023-04-28T21:11:24.410Z,49.50
2023-04-28T21:13:57.323Z,49.60
2023-04-28T21:16:29.459Z,49.62
2023-04-28T21:35:24.079Z,49.60
2023-04-28T21:37:57.823Z,49.56
2023-04-28T21:40:31.886Z,49.51
2023-04-28T21:43:06.362Z,49.45
2023-04-28T21:45:40.136Z,49.51
2023-04-28T21:48:14.254Z,49.51
2023-04-28T21:50:48.100Z,49.55
2023-04-28T21:53:22.311Z,49.60
2023-04-28T21:55:58.680Z,49.63
2023-04-28T21:58:32.423Z,49.63
2023-04-28T22:01:07.119Z,49.53
2023-04-28T22:03:41.672Z,49.66
2023-04-28T22:06:18.532Z,49.77
2023-04-28T22:08:54.288Z,49.87
2023-04-28T22:11:28.640Z,50.15
2023-04-28T22:14:02.655Z,50.28
2023-04-28T22:16:36.547Z,50.44
2023-04-28T22:19:10.148Z,50.65
2023-04-28T22:21:43.816Z,50.78
2023-04-28T22:24:19.098Z,50.89
2023-04-28T22:26:54.252Z,51.09
2023-04-28T22:29:30.509Z,50.99
2023-04-28T22:32:05.113Z,51.31
2023-04-28T22:34:38.656Z,51.44
2023-04-28T22:37:12.862Z,51.56
2023-04-28T22:39:46.906Z,51.68
2023-04-28T22:42:21.297Z,51.74
2023-04-28T22:44:56.099Z,51.89
2023-04-28T22:47:30.083Z,51.93
2023-04-28T22:50:06.231Z,52.01
2023-04-28T22:52:40.534Z,52.02
2023-04-28T22:55:16.920Z,52.15
2023-04-28T22:57:50.724Z,52.17
2023-04-28T23:00:26.848Z,52.33
2023-04-28T23:03:01.150Z,52.47
2023-04-28T23:05:35.767Z,52.69
2023-04-28T23:08:10.370Z,52.91
2023-04-28T23:10:44.045Z,52.85
2023-04-28T23:13:17.943Z,53.13
2023-04-28T23:15:51.548Z,53.25
2023-04-28T23:18:25.303Z,53.24
2023-04-28T23:20:58.924Z,53.16
2023-04-28T23:23:33.591Z,53.30
2023-04-28T23:26:08.212Z,53.43
2023-04-28T23:28:42.016Z,53.49
2023-04-28T23:31:15.655Z,53.61
2023-04-28T23:33:49.371Z,53.83
2023-04-28T23:36:24.222Z,53.98
2023-04-28T23:39:01.457Z,53.98
2023-04-28T23:41:35.148Z,54.02
2023-04-28T23:44:09.089Z,54.11
2023-04-28T23:46:42.804Z,53.97
2023-04-28T23:49:17.127Z,54.25
2023-04-28T23:51:50.787Z,54.10
2023-04-28T23:54:26.791Z,54.39
2023-04-28T23:57:00.374Z,54.63
2023-04-28T23:59:33.879Z,54.75
